Terminal Aerodrome Forecast
Issued by NWS Jackson, MS

Home | Current Version | Previous Version | Text Only | Print | Product List | Glossary On
Versions: 1 2 3 4 5 6 7 8 9 10 11 12 13 14 15 16 17 18 19 20
000
FTUS44 KJAN 010600 AAC
TAFGWO
TAF AMD
KGWO 010632Z 0107/0206 05003KT 5SM -RA BR SCT060 OVC150
     FM010900 00000KT 4SM BR VCSH SCT090 OVC150
     FM011600 06006KT P6SM VCSH SCT020 OVC040
     FM020000 02004KT P6SM OVC100=

USA.gov is the U.S. government's official web portal to all federal, state and local government web resources and services.